sensor_id;sensor_type;location;lat;lon;timestamp;P1;P2;P0
48155;PMS5003;35568;48.104;11.782;2022-08-19T00:01:44;10;10;
48155;PMS5003;35568;48.104;11.782;2022-08-19T00:04:13;8;8;
48155;PMS5003;35568;48.104;11.782;2022-08-19T00:06:44;7;7;
48155;PMS5003;35568;48.104;11.782;2022-08-19T00:09:14;8;7;
48155;PMS5003;35568;48.104;11.782;2022-08-19T00:11:43;7;7;
48155;PMS5003;35568;48.104;11.782;2022-08-19T00:14:11;7;7;
48155;PMS5003;35568;48.104;11.782;2022-08-19T00:16:40;7;6;
48155;PMS5003;35568;48.104;11.782;2022-08-19T00:19:09;6;6;
48155;PMS5003;35568;48.104;11.782;2022-08-19T00:21:37;5;5;
48155;PMS5003;35568;48.104;11.782;2022-08-19T00:24:04;5;5;
48155;PMS5003;35568;48.104;11.782;2022-08-19T00:26:31;7;7;
48155;PMS5003;35568;48.104;11.782;2022-08-19T00:28:59;5;5;
48155;PMS5003;35568;48.104;11.782;2022-08-19T00:31:26;5;5;
48155;PMS5003;35568;48.104;11.782;2022-08-19T00:33:53;5;5;
48155;PMS5003;35568;48.104;11.782;2022-08-19T00:36:20;5;5;
48155;PMS5003;35568;48.104;11.782;2022-08-19T00:38:47;6;6;
48155;PMS5003;35568;48.104;11.782;2022-08-19T00:41:17;4;4;
48155;PMS5003;35568;48.104;11.782;2022-08-19T00:43:56;5;5;
48155;PMS5003;35568;48.104;11.782;2022-08-19T00:46:25;5;4;
48155;PMS5003;35568;48.104;11.782;2022-08-19T00:48:51;4;4;
48155;PMS5003;35568;48.104;11.782;2022-08-19T00:51:19;6;6;
48155;PMS5003;35568;48.104;11.782;2022-08-19T00:53:46;4;4;
48155;PMS5003;35568;48.104;11.782;2022-08-19T00:56:13;4;4;
48155;PMS5003;35568;48.104;11.782;2022-08-19T00:58:40;5;5;
48155;PMS5003;35568;48.104;11.782;2022-08-19T01:01:06;5;5;
48155;PMS5003;35568;48.104;11.782;2022-08-19T01:03:33;5;5;
48155;PMS5003;35568;48.104;11.782;2022-08-19T01:06:00;6;6;
48155;PMS5003;35568;48.104;11.782;2022-08-19T01:08:27;5;5;
48155;PMS5003;35568;48.104;11.782;2022-08-19T01:10:55;7;6;
48155;PMS5003;35568;48.104;11.782;2022-08-19T01:13:27;6;6;
48155;PMS5003;35568;48.104;11.782;2022-08-19T01:15:57;10;8;
48155;PMS5003;35568;48.104;11.782;2022-08-19T01:18:27;7;7;
48155;PMS5003;35568;48.104;11.782;2022-08-19T01:20:55;5;4;
48155;PMS5003;35568;48.104;11.782;2022-08-19T01:23:28;6;6;
48155;PMS5003;35568;48.104;11.782;2022-08-19T01:25:55;8;8;
48155;PMS5003;35568;48.104;11.782;2022-08-19T01:28:24;3;3;
48155;PMS5003;35568;48.104;11.782;2022-08-19T01:30:53;3;3;
48155;PMS5003;35568;48.104;11.782;2022-08-19T01:33:21;6;6;
48155;PMS5003;35568;48.104;11.782;2022-08-19T01:35:48;6;6;
48155;PMS5003;35568;48.104;11.782;2022-08-19T01:38:19;6;5;
48155;PMS5003;35568;48.104;11.782;2022-08-19T01:40:49;7;6;
48155;PMS5003;35568;48.104;11.782;2022-08-19T01:43:17;6;5;
48155;PMS5003;35568;48.104;11.782;2022-08-19T01:45:44;5;4;
48155;PMS5003;35568;48.104;11.782;2022-08-19T01:48:12;6;6;
48155;PMS5003;35568;48.104;11.782;2022-08-19T01:50:40;4;4;
48155;PMS5003;35568;48.104;11.782;2022-08-19T01:53:09;6;5;
48155;PMS5003;35568;48.104;11.782;2022-08-19T01:55:38;4;4;
48155;PMS5003;35568;48.104;11.782;2022-08-19T01:58:07;7;6;
48155;PMS5003;35568;48.104;11.782;2022-08-19T02:00:39;5;4;
48155;PMS5003;35568;48.104;11.782;2022-08-19T02:03:06;5;5;
48155;PMS5003;35568;48.104;11.782;2022-08-19T02:05:33;5;5;
48155;PMS5003;35568;48.104;11.782;2022-08-19T02:08:00;6;5;
48155;PMS5003;35568;48.104;11.782;2022-08-19T02:10:26;5;4;
48155;PMS5003;35568;48.104;11.782;2022-08-19T02:12:53;6;6;
48155;PMS5003;35568;48.104;11.782;2022-08-19T02:15:20;6;6;
48155;PMS5003;35568;48.104;11.782;2022-08-19T02:17:47;6;5;
48155;PMS5003;35568;48.104;11.782;2022-08-19T02:20:15;4;4;
48155;PMS5003;35568;48.104;11.782;2022-08-19T02:22:42;5;5;
48155;PMS5003;35568;48.104;11.782;2022-08-19T02:25:10;6;6;
48155;PMS5003;35568;48.104;11.782;2022-08-19T02:27:37;4;4;
48155;PMS5003;35568;48.104;11.782;2022-08-19T02:30:06;5;4;
48155;PMS5003;35568;48.104;11.782;2022-08-19T02:32:34;4;4;
48155;PMS5003;35568;48.104;11.782;2022-08-19T02:35:02;7;7;
48155;PMS5003;35568;48.104;11.782;2022-08-19T02:37:29;4;4;
48155;PMS5003;35568;48.104;11.782;2022-08-19T02:39:57;5;5;
48155;PMS5003;35568;48.104;11.782;2022-08-19T02:42:25;4;3;
48155;PMS5003;35568;48.104;11.782;2022-08-19T02:44:51;4;4;
48155;PMS5003;35568;48.104;11.782;2022-08-19T02:47:18;3;3;
48155;PMS5003;35568;48.104;11.782;2022-08-19T02:49:45;4;4;
48155;PMS5003;35568;48.104;11.782;2022-08-19T02:52:12;5;5;
48155;PMS5003;35568;48.104;11.782;2022-08-19T02:54:39;7;6;
48155;PMS5003;35568;48.104;11.782;2022-08-19T02:57:05;5;4;
48155;PMS5003;35568;48.104;11.782;2022-08-19T02:59:32;3;3;
48155;PMS5003;35568;48.104;11.782;2022-08-19T03:03:00;5;4;
48155;PMS5003;35568;48.104;11.782;2022-08-19T03:05:27;4;4;
48155;PMS5003;35568;48.104;11.782;2022-08-19T03:07:54;6;6;
48155;PMS5003;35568;48.104;11.782;2022-08-19T03:10:21;6;5;
48155;PMS5003;35568;48.104;11.782;2022-08-19T03:12:47;4;3;
48155;PMS5003;35568;48.104;11.782;2022-08-19T03:15:14;6;4;
48155;PMS5003;35568;48.104;11.782;2022-08-19T03:17:41;6;6;
48155;PMS5003;35568;48.104;11.782;2022-08-19T03:20:08;4;4;
48155;PMS5003;35568;48.104;11.782;2022-08-19T03:22:35;6;3;
48155;PMS5003;35568;48.104;11.782;2022-08-19T03:25:03;5;5;
48155;PMS5003;35568;48.104;11.782;2022-08-19T03:27:30;3;3;
48155;PMS5003;35568;48.104;11.782;2022-08-19T03:29:57;4;4;
48155;PMS5003;35568;48.104;11.782;2022-08-19T03:32:24;6;5;
48155;PMS5003;35568;48.104;11.782;2022-08-19T03:34:50;4;4;
48155;PMS5003;35568;48.104;11.782;2022-08-19T03:37:17;5;5;
48155;PMS5003;35568;48.104;11.782;2022-08-19T03:39:44;4;4;
48155;PMS5003;35568;48.104;11.782;2022-08-19T03:42:11;6;4;
48155;PMS5003;35568;48.104;11.782;2022-08-19T03:44:38;4;4;
48155;PMS5003;35568;48.104;11.782;2022-08-19T03:47:05;5;5;
48155;PMS5003;35568;48.104;11.782;2022-08-19T03:49:32;4;4;
48155;PMS5003;35568;48.104;11.782;2022-08-19T03:51:59;4;4;
48155;PMS5003;35568;48.104;11.782;2022-08-19T03:54:26;5;4;
48155;PMS5003;35568;48.104;11.782;2022-08-19T03:56:54;4;4;
48155;PMS5003;35568;48.104;11.782;2022-08-19T03:59:23;5;5;
48155;PMS5003;35568;48.104;11.782;2022-08-19T04:01:53;7;5;
48155;PMS5003;35568;48.104;11.782;2022-08-19T04:04:22;4;4;
48155;PMS5003;35568;48.104;11.782;2022-08-19T04:06:49;5;5;
48155;PMS5003;35568;48.104;11.782;2022-08-19T04:09:17;4;4;
48155;PMS5003;35568;48.104;11.782;2022-08-19T04:11:46;7;7;
48155;PMS5003;35568;48.104;11.782;2022-08-19T04:14:16;9;8;
48155;PMS5003;35568;48.104;11.782;2022-08-19T04:16:45;4;4;
48155;PMS5003;35568;48.104;11.782;2022-08-19T04:19:15;7;7;
48155;PMS5003;35568;48.104;11.782;2022-08-19T04:21:44;7;6;
48155;PMS5003;35568;48.104;11.782;2022-08-19T04:24:13;5;5;
48155;PMS5003;35568;48.104;11.782;2022-08-19T04:26:41;4;4;
48155;PMS5003;35568;48.104;11.782;2022-08-19T04:29:09;4;4;
48155;PMS5003;35568;48.104;11.782;2022-08-19T04:31:39;4;4;
48155;PMS5003;35568;48.104;11.782;2022-08-19T04:34:09;4;3;
48155;PMS5003;35568;48.104;11.782;2022-08-19T04:36:37;4;4;
48155;PMS5003;35568;48.104;11.782;2022-08-19T04:39:07;5;5;
48155;PMS5003;35568;48.104;11.782;2022-08-19T04:41:36;5;5;
48155;PMS5003;35568;48.104;11.782;2022-08-19T04:44:03;5;5;
48155;PMS5003;35568;48.104;11.782;2022-08-19T04:46:31;6;6;
48155;PMS5003;35568;48.104;11.782;2022-08-19T04:48:59;5;5;
48155;PMS5003;35568;48.104;11.782;2022-08-19T04:51:27;6;6;
48155;PMS5003;35568;48.104;11.782;2022-08-19T04:53:54;4;4;
48155;PMS5003;35568;48.104;11.782;2022-08-19T04:56:21;4;4;
48155;PMS5003;35568;48.104;11.782;2022-08-19T04:58:48;8;7;
48155;PMS5003;35568;48.104;11.782;2022-08-19T05:01:17;2;2;
48155;PMS5003;35568;48.104;11.782;2022-08-19T05:03:45;6;5;
48155;PMS5003;35568;48.104;11.782;2022-08-19T05:06:14;5;5;
48155;PMS5003;35568;48.104;11.782;2022-08-19T05:08:43;4;4;
48155;PMS5003;35568;48.104;11.782;2022-08-19T05:11:12;3;3;
48155;PMS5003;35568;48.104;11.782;2022-08-19T05:13:41;5;5;
48155;PMS5003;35568;48.104;11.782;2022-08-19T05:16:09;5;5;
48155;PMS5003;35568;48.104;11.782;2022-08-19T05:18:37;4;3;
48155;PMS5003;35568;48.104;11.782;2022-08-19T05:21:05;5;5;
48155;PMS5003;35568;48.104;11.782;2022-08-19T05:23:33;6;6;
48155;PMS5003;35568;48.104;11.782;2022-08-19T05:26:00;5;5;
48155;PMS5003;35568;48.104;11.782;2022-08-19T05:28:28;5;5;
48155;PMS5003;35568;48.104;11.782;2022-08-19T05:30:55;7;7;
48155;PMS5003;35568;48.104;11.782;2022-08-19T05:33:22;4;4;
48155;PMS5003;35568;48.104;11.782;2022-08-19T05:35:50;4;4;
48155;PMS5003;35568;48.104;11.782;2022-08-19T05:38:17;5;4;
48155;PMS5003;35568;48.104;11.782;2022-08-19T05:40:45;5;5;
48155;PMS5003;35568;48.104;11.782;2022-08-19T05:43:12;5;5;
48155;PMS5003;35568;48.104;11.782;2022-08-19T05:45:40;4;4;
48155;PMS5003;35568;48.104;11.782;2022-08-19T05:48:07;6;6;
48155;PMS5003;35568;48.104;11.782;2022-08-19T05:50:35;4;4;
48155;PMS5003;35568;48.104;11.782;2022-08-19T05:53:03;6;6;
48155;PMS5003;35568;48.104;11.782;2022-08-19T05:55:30;5;5;
48155;PMS5003;35568;48.104;11.782;2022-08-19T05:57:57;2;2;
48155;PMS5003;35568;48.104;11.782;2022-08-19T06:00:25;6;5;
48155;PMS5003;35568;48.104;11.782;2022-08-19T06:02:51;4;4;
48155;PMS5003;35568;48.104;11.782;2022-08-19T06:05:18;3;3;
48155;PMS5003;35568;48.104;11.782;2022-08-19T06:07:45;7;6;
48155;PMS5003;35568;48.104;11.782;2022-08-19T06:10:12;5;5;
48155;PMS5003;35568;48.104;11.782;2022-08-19T06:12:39;8;8;
48155;PMS5003;35568;48.104;11.782;2022-08-19T06:15:07;4;4;
48155;PMS5003;35568;48.104;11.782;2022-08-19T06:17:36;7;7;
48155;PMS5003;35568;48.104;11.782;2022-08-19T06:20:04;6;6;
48155;PMS5003;35568;48.104;11.782;2022-08-19T06:22:37;6;6;
48155;PMS5003;35568;48.104;11.782;2022-08-19T06:25:05;5;5;
48155;PMS5003;35568;48.104;11.782;2022-08-19T06:27:32;7;6;
48155;PMS5003;35568;48.104;11.782;2022-08-19T06:29:59;5;5;
48155;PMS5003;35568;48.104;11.782;2022-08-19T06:32:27;7;7;
48155;PMS5003;35568;48.104;11.782;2022-08-19T06:34:53;7;7;
48155;PMS5003;35568;48.104;11.782;2022-08-19T06:37:20;7;7;
48155;PMS5003;35568;48.104;11.782;2022-08-19T06:39:48;7;7;
48155;PMS5003;35568;48.104;11.782;2022-08-19T06:42:16;8;7;
48155;PMS5003;35568;48.104;11.782;2022-08-19T06:44:44;9;8;
48155;PMS5003;35568;48.104;11.782;2022-08-19T06:47:13;6;6;
48155;PMS5003;35568;48.104;11.782;2022-08-19T06:49:43;8;8;
48155;PMS5003;35568;48.104;11.782;2022-08-19T06:52:10;6;6;
48155;PMS5003;35568;48.104;11.782;2022-08-19T06:54:38;6;6;
48155;PMS5003;35568;48.104;11.782;2022-08-19T06:57:05;5;5;
48155;PMS5003;35568;48.104;11.782;2022-08-19T06:59:32;6;5;
48155;PMS5003;35568;48.104;11.782;2022-08-19T07:02:00;8;8;
48155;PMS5003;35568;48.104;11.782;2022-08-19T07:04:31;8;7;
48155;PMS5003;35568;48.104;11.782;2022-08-19T07:07:00;8;8;
48155;PMS5003;35568;48.104;11.782;2022-08-19T07:09:28;6;6;
48155;PMS5003;35568;48.104;11.782;2022-08-19T07:11:55;9;9;
48155;PMS5003;35568;48.104;11.782;2022-08-19T07:14:23;9;9;
48155;PMS5003;35568;48.104;11.782;2022-08-19T07:16:54;10;9;
48155;PMS5003;35568;48.104;11.782;2022-08-19T07:19:23;12;10;
48155;PMS5003;35568;48.104;11.782;2022-08-19T07:21:51;10;10;
48155;PMS5003;35568;48.104;11.782;2022-08-19T07:24:20;11;10;
48155;PMS5003;35568;48.104;11.782;2022-08-19T07:26:49;13;12;
48155;PMS5003;35568;48.104;11.782;2022-08-19T07:29:18;12;11;
48155;PMS5003;35568;48.104;11.782;2022-08-19T07:31:46;12;11;
48155;PMS5003;35568;48.104;11.782;2022-08-19T07:34:13;12;12;
48155;PMS5003;35568;48.104;11.782;2022-08-19T07:36:41;15;13;
48155;PMS5003;35568;48.104;11.782;2022-08-19T07:39:10;8;8;
48155;PMS5003;35568;48.104;11.782;2022-08-19T07:41:39;14;13;
48155;PMS5003;35568;48.104;11.782;2022-08-19T07:44:07;13;12;
48155;PMS5003;35568;48.104;11.782;2022-08-19T07:46:36;10;10;
48155;PMS5003;35568;48.104;11.782;2022-08-19T07:49:07;14;13;
48155;PMS5003;35568;48.104;11.782;2022-08-19T07:51:34;14;13;
48155;PMS5003;35568;48.104;11.782;2022-08-19T07:54:01;11;11;
48155;PMS5003;35568;48.104;11.782;2022-08-19T07:56:28;11;11;
48155;PMS5003;35568;48.104;11.782;2022-08-19T07:58:55;16;13;
48155;PMS5003;35568;48.104;11.782;2022-08-19T08:01:23;15;14;
48155;PMS5003;35568;48.104;11.782;2022-08-19T08:03:52;11;11;
48155;PMS5003;35568;48.104;11.782;2022-08-19T08:06:21;12;11;
48155;PMS5003;35568;48.104;11.782;2022-08-19T08:08:49;15;14;
48155;PMS5003;35568;48.104;11.782;2022-08-19T08:11:16;11;11;
48155;PMS5003;35568;48.104;11.782;2022-08-19T08:13:45;13;12;
48155;PMS5003;35568;48.104;11.782;2022-08-19T08:16:12;18;16;
48155;PMS5003;35568;48.104;11.782;2022-08-19T08:18:40;13;12;
48155;PMS5003;35568;48.104;11.782;2022-08-19T08:21:07;12;12;
48155;PMS5003;35568;48.104;11.782;2022-08-19T08:23:34;14;12;
48155;PMS5003;35568;48.104;11.782;2022-08-19T08:26:01;14;12;
48155;PMS5003;35568;48.104;11.782;2022-08-19T08:28:28;14;11;
48155;PMS5003;35568;48.104;11.782;2022-08-19T08:30:55;13;11;
48155;PMS5003;35568;48.104;11.782;2022-08-19T08:33:24;12;12;
48155;PMS5003;35568;48.104;11.782;2022-08-19T08:35:52;14;14;
48155;PMS5003;35568;48.104;11.782;2022-08-19T08:38:19;13;12;
48155;PMS5003;35568;48.104;11.782;2022-08-19T08:40:47;13;12;
48155;PMS5003;35568;48.104;11.782;2022-08-19T08:43:19;14;13;
48155;PMS5003;35568;48.104;11.782;2022-08-19T08:45:55;12;12;
48155;PMS5003;35568;48.104;11.782;2022-08-19T08:48:35;14;13;
48155;PMS5003;35568;48.104;11.782;2022-08-19T08:51:09;13;12;
48155;PMS5003;35568;48.104;11.782;2022-08-19T08:53:41;13;13;
48155;PMS5003;35568;48.104;11.782;2022-08-19T08:56:11;17;15;
48155;PMS5003;35568;48.104;11.782;2022-08-19T08:58:42;13;13;
48155;PMS5003;35568;48.104;11.782;2022-08-19T09:01:15;16;15;
